William P Hobby Airport
KHOU : now visible

Airfield :











YOU CAN JOIN US ON...

 
LOGIN :

Register | Disclaimer

   EN    FR    IT 

 









Legend :    VFR   Marginal VFR   IFR   Intensive IFR   Very Intensive IFR
Visi :
Ceiling :
>= 8 km
>= 3000ft
5 to 8 km
1000 to 3000 ft
1500m to 5 km
500 to 1000 ft
800 to 1500m
200 to 500 ft
< 800m
< 200 ft
Symbols :   Thunderstorms  Fog  Heavy snow  Heavy precipitations  Wind > 20 kt






- Airport Elevation : 46 ft
- IATA code : HOU


KHOU - William P Hobby

CURRENT METAR :
  • 250853Z 12011KT 10SM FEW015 BKN060 BKN250 24/21 A2972 RMK AO2 LTG DSNT S-W SLP067 OCNL LTGICCC DSNT S-SW-W CB DSNT S-SW-W MOV NE T02390206 56025

EXPIRED METARs :
  • 250753Z 13007KT 10SM FEW015 SCT080 BKN250 22/19 A2972 RMK AO2 SLP070 T02220194
  • 250653Z 15006KT 10SM FEW010 SCT180 BKN250 22/19 A2976 RMK AO2 SLP082 T02220194
  • 250553Z 13009KT 10SM FEW010 FEW150 BKN250 22/19 A2979 RMK AO2 SLP092 60044 T02170194 10283 20206 403220206 50002

TAF KHOU
Valid from the 25 at 08:00 until the 26 at 06:00 UTC


250821Z 2508/2606 13007KT P6SM FEW015 SCT080 BKN250
FM251000 14007KT P6SM SHRA VCTS SCT015 BKN025CB OVC250
FM251200 VRB06KT P6SM -RA VCTS BKN015CB
FM251500 13006KT P6SM SCT025 BKN035
FM251800 14008KT P6SM BKN050
FM260500 13005KT P6SM BKN020
KZHU FIR / North America



MET'MAP, your aeronautical weather chart ! - Copyright ORBIFLY December 2007 - Disclaimer

ORBIFLY MET'MAP TEAM :

Programming & Development : Alexandra Zaïnal
Concept & original design : Baudouin d'Aumeries
Assistance for programming : Marc-Olivier Méhu
Technical & hardware support : Manuel Goepfert

Contact : metmap@orbifly.com




SOURCES & CREDITS :

   NOAA       Earth
Advisory